Time;durP1;ratioP1;P1;durP2;ratioP2;P2;SDS_P1;SDS_P2;PMS_P1;PMS_P2;Temp;Humidity;BMP_temperature;BMP_pressure;BME280_temperature;BME280_humidity;BME280_pressure;Samples;Min_cycle;Max_cycle;Signal;HPM_P1;HPM_P2
2022/09/30 00:00:59;;;;;;;5.53;3.90;;;9.60;99.90;;;;;;5035549;28;20202;-81
2022/09/30 00:03:24;;;;;;;8.17;4.50;;;9.60;99.90;;;;;;5025795;28;20189;-82
2022/09/30 00:06:01;;;;;;;5.10;4.47;;;9.80;99.90;;;;;;5034738;28;20191;-82
2022/09/30 00:08:27;;;;;;;5.15;4.65;;;10.10;99.90;;;;;;5028060;28;20282;-82
2022/09/30 00:11:02;;;;;;;5.27;4.03;;;9.60;99.90;;;;;;5025266;28;20301;-82
2022/09/30 00:13:27;;;;;;;7.07;4.82;;;9.50;99.90;;;;;;5042787;28;20177;-81
2022/09/30 00:15:53;;;;;;;6.00;4.80;;;9.80;99.90;;;;;;5034215;28;20213;-81
2022/09/30 00:18:18;;;;;;;4.33;3.93;;;9.90;99.90;;;;;;5017646;28;20183;-82
2022/09/30 00:20:44;;;;;;;5.10;4.60;;;9.80;99.90;;;;;;5022159;28;20206;-80
2022/09/30 00:23:09;;;;;;;4.90;4.37;;;10.00;99.90;;;;;;5026297;28;20178;-82
2022/09/30 00:25:35;;;;;;;4.70;4.30;;;9.80;99.90;;;;;;5015652;28;20570;-81
2022/09/30 00:28:00;;;;;;;6.83;4.50;;;9.50;99.90;;;;;;5034538;28;20553;-81
2022/09/30 00:30:26;;;;;;;8.53;4.47;;;10.10;99.90;;;;;;5019379;28;20294;-81
2022/09/30 00:32:51;;;;;;;6.00;4.70;;;9.70;99.90;;;;;;5019059;28;20648;-82
2022/09/30 00:35:17;;;;;;;5.07;4.60;;;9.70;99.90;;;;;;5030185;28;20215;-81
2022/09/30 00:37:43;;;;;;;7.40;4.17;;;10.10;99.90;;;;;;5049900;28;20278;-81
2022/09/30 00:40:10;;;;;;;6.63;4.23;;;9.90;99.90;;;;;;5018209;28;20195;-80
2022/09/30 00:42:40;;;;;;;4.47;4.07;;;9.70;99.90;;;;;;5030050;28;20189;-81
2022/09/30 00:45:09;;;;;;;5.57;5.07;;;9.90;99.90;;;;;;5027704;28;20187;-82
2022/09/30 00:47:44;;;;;;;5.15;4.65;;;9.80;99.90;;;;;;5023960;28;20718;-81
2022/09/30 00:50:18;;;;;;;4.90;4.45;;;10.40;99.90;;;;;;5018908;28;20674;-80
2022/09/30 00:52:50;;;;;;;4.75;4.35;;;10.10;99.90;;;;;;5016855;28;20717;-81
2022/09/30 00:55:30;;;;;;;5.13;4.63;;;9.90;99.90;;;;;;5036654;28;20221;-82
2022/09/30 00:57:57;;;;;;;4.90;4.50;;;10.10;99.90;;;;;;5040529;28;20603;-80
2022/09/30 01:00:23;;;;;;;5.20;4.70;;;9.90;99.90;;;;;;5039377;28;20268;-81
2022/09/30 01:02:49;;;;;;;4.13;3.83;;;10.40;99.90;;;;;;5035859;28;20190;-81
2022/09/30 01:05:14;;;;;;;6.00;4.90;;;9.80;99.90;;;;;;5035555;28;20230;-82
2022/09/30 01:07:41;;;;;;;5.00;4.60;;;9.90;99.90;;;;;;5027889;28;20193;-81
2022/09/30 01:10:06;;;;;;;5.35;4.80;;;9.80;99.90;;;;;;5037781;28;20182;-80
2022/09/30 01:12:32;;;;;;;5.40;4.80;;;9.90;99.90;;;;;;5026439;28;20241;-81
2022/09/30 01:14:59;;;;;;;5.30;4.80;;;10.20;99.90;;;;;;5027981;28;21054;-82
2022/09/30 01:17:28;;;;;;;6.15;5.03;;;9.80;99.90;;;;;;5028494;28;20433;-81
2022/09/30 01:20:31;;;;;;;5.25;4.72;;;10.30;99.90;;;;;;5029405;28;20269;-81
2022/09/30 01:23:03;;;;;;;5.78;5.00;;;9.90;99.90;;;;;;5022445;28;20235;-81
2022/09/30 01:25:59;;;;;;;5.50;4.90;;;10.20;99.90;;;;;;5029187;28;20235;-81
2022/09/30 01:28:40;;;;;;;5.32;4.82;;;9.90;99.90;;;;;;5033448;28;20315;-81
2022/09/30 01:31:39;;;;;;;6.05;4.82;;;10.10;99.90;;;;;;5024365;28;20210;-81
2022/09/30 01:34:15;;;;;;;5.20;4.70;;;10.10;99.90;;;;;;5027579;28;20503;-81
2022/09/30 01:36:59;;;;;;;4.63;4.22;;;9.90;99.90;;;;;;5030159;28;20205;-81
2022/09/30 01:39:48;;;;;;;4.95;4.53;;;10.00;99.90;;;;;;5031197;28;20178;-80
2022/09/30 01:42:42;;;;;;;5.55;4.85;;;10.00;99.90;;;;;;5025976;28;20206;-82
2022/09/30 01:45:25;;;;;;;5.55;4.50;;;10.20;99.90;;;;;;5030126;28;20189;-81
2022/09/30 01:47:58;;;;;;;5.07;4.43;;;10.40;99.90;;;;;;5030348;28;20186;-82
2022/09/30 01:50:31;;;;;;;4.70;4.25;;;9.80;99.90;;;;;;5027566;28;20267;-81
2022/09/30 01:53:07;;;;;;;6.30;5.80;;;10.10;99.90;;;;;;5027933;28;20183;-82
2022/09/30 01:55:45;;;;;;;5.18;4.57;;;10.50;99.90;;;;;;5037144;28;20207;-81
2022/09/30 01:58:36;;;;;;;5.45;4.97;;;9.80;99.90;;;;;;5034675;28;20183;-81
2022/09/30 02:01:08;;;;;;;6.28;5.00;;;10.10;99.90;;;;;;5024723;28;20227;-80
2022/09/30 02:03:43;;;;;;;5.65;5.15;;;10.60;99.90;;;;;;5030909;28;20202;-81
2022/09/30 02:06:13;;;;;;;6.07;5.07;;;10.60;99.90;;;;;;5020814;28;20207;-81
2022/09/30 02:08:57;;;;;;;6.15;5.10;;;10.10;99.90;;;;;;5020813;28;20218;-80
2022/09/30 02:11:27;;;;;;;5.72;5.22;;;10.20;99.90;;;;;;5019282;28;20675;-81
2022/09/30 02:14:00;;;;;;;5.75;5.22;;;10.50;99.90;;;;;;5042761;28;20191;-81
2022/09/30 02:16:41;;;;;;;5.32;4.82;;;10.10;99.90;;;;;;5027764;28;20190;-81
2022/09/30 02:19:12;;;;;;;7.05;5.50;;;10.30;99.90;;;;;;5032404;28;20174;-81
2022/09/30 02:21:40;;;;;;;6.18;5.47;;;10.30;99.90;;;;;;5028400;28;20209;-80
2022/09/30 02:24:11;;;;;;;8.68;7.32;;;10.00;99.90;;;;;;5025052;28;20223;-81
2022/09/30 02:26:40;;;;;;;6.88;5.78;;;10.20;99.90;;;;;;5017743;28;20273;-81
2022/09/30 02:29:14;;;;;;;7.60;5.13;;;10.50;99.90;;;;;;5027499;28;20197;-81
2022/09/30 02:31:42;;;;;;;5.93;5.30;;;10.20;99.90;;;;;;5034833;28;20207;-80
2022/09/30 02:34:13;;;;;;;5.43;4.90;;;10.30;99.90;;;;;;5017986;28;20181;-81
2022/09/30 02:37:04;;;;;;;6.00;5.07;;;10.20;99.90;;;;;;5029447;28;20588;-80
2022/09/30 02:39:43;;;;;;;5.95;5.45;;;10.00;99.90;;;;;;5039044;28;20209;-81
2022/09/30 02:42:19;;;;;;;5.85;5.30;;;10.60;99.90;;;;;;5020397;28;20212;-81
2022/09/30 02:44:49;;;;;;;9.90;5.95;;;9.80;99.90;;;;;;5035380;28;20179;-81
2022/09/30 02:47:45;;;;;;;10.55;5.03;;;10.10;99.90;;;;;;5037866;28;20542;-81
2022/09/30 02:50:33;;;;;;;7.78;5.97;;;10.00;99.90;;;;;;5015090;28;20215;-81
2022/09/30 02:53:14;;;;;;;7.15;5.78;;;10.00;99.90;;;;;;5023278;28;20239;-80
2022/09/30 02:56:03;;;;;;;5.78;5.28;;;9.50;99.90;;;;;;5025671;28;20218;-81
2022/09/30 02:58:29;;;;;;;7.50;5.55;;;10.20;99.90;;;;;;5024220;28;20180;-81
2022/09/30 03:00:56;;;;;;;7.75;7.03;;;10.40;99.90;;;;;;5030800;28;20563;-81
2022/09/30 03:03:29;;;;;;;6.20;5.60;;;9.90;99.90;;;;;;5043269;28;20659;-81
2022/09/30 03:05:54;;;;;;;7.05;6.07;;;10.20;99.90;;;;;;5043914;28;20186;-80
2022/09/30 03:08:20;;;;;;;6.13;5.20;;;10.20;99.90;;;;;;5034720;28;20765;-80
2022/09/30 03:10:49;;;;;;;6.40;5.80;;;10.20;99.90;;;;;;5038393;28;20273;-80
2022/09/30 03:13:52;;;;;;;7.13;5.47;;;10.70;99.90;;;;;;5030357;28;20178;-81
2022/09/30 03:16:44;;;;;;;6.78;5.40;;;10.10;99.90;;;;;;5027724;28;20554;-81
2022/09/30 03:19:31;;;;;;;5.65;5.10;;;10.20;99.90;;;;;;5029557;28;20230;-81
2022/09/30 03:22:23;;;;;;;7.05;4.80;;;10.40;99.90;;;;;;5030809;28;20202;-80
2022/09/30 03:24:50;;;;;;;6.88;5.13;;;10.00;99.90;;;;;;5036435;28;20229;-80
2022/09/30 03:27:31;;;;;;;5.70;5.20;;;10.10;99.90;;;;;;5019121;28;20214;-80
2022/09/30 03:30:12;;;;;;;5.53;4.85;;;10.10;99.90;;;;;;5022749;28;20179;-81
2022/09/30 03:33:19;;;;;;;8.57;7.22;;;10.10;99.90;;;;;;5026864;28;20207;-81
2022/09/30 03:36:12;;;;;;;7.60;6.90;;;10.20;99.90;;;;;;5033574;28;20284;-80
2022/09/30 03:38:56;;;;;;;8.00;7.20;;;10.20;99.90;;;;;;5017491;28;20198;-81
2022/09/30 03:42:12;;;;;;;8.85;7.65;;;10.20;99.90;;;;;;5027401;28;20199;-81
2022/09/30 03:44:49;;;;;;;10.38;7.88;;;10.30;99.90;;;;;;5024091;28;20190;-81
2022/09/30 03:47:16;;;;;;;9.20;7.55;;;10.50;99.90;;;;;;5030433;28;20185;-81
2022/09/30 03:49:47;;;;;;;8.20;7.38;;;10.70;99.90;;;;;;5027085;28;20234;-81
2022/09/30 03:52:13;;;;;;;11.80;8.50;;;10.90;99.90;;;;;;5027899;28;20203;-80
2022/09/30 03:54:48;;;;;;;10.00;7.47;;;10.70;99.90;;;;;;5028119;28;20602;-81
2022/09/30 03:57:13;;;;;;;7.85;6.90;;;10.40;99.90;;;;;;5029368;28;20490;-80
2022/09/30 03:59:39;;;;;;;9.50;7.20;;;10.70;99.90;;;;;;5022371;28;20852;-81
2022/09/30 04:02:07;;;;;;;7.60;6.87;;;10.10;99.90;;;;;;5011867;28;20461;-81
2022/09/30 04:04:32;;;;;;;10.13;6.78;;;10.40;99.90;;;;;;5017557;28;20942;-81
2022/09/30 04:06:58;;;;;;;7.60;6.80;;;10.10;99.90;;;;;;5022463;28;20260;-81
2022/09/30 04:09:23;;;;;;;7.37;6.13;;;10.00;99.90;;;;;;5025232;28;20192;-81
2022/09/30 04:11:49;;;;;;;8.03;6.80;;;10.00;99.90;;;;;;5029191;28;20254;-81
2022/09/30 04:14:14;;;;;;;7.43;6.10;;;9.70;99.90;;;;;;5034249;28;20206;-80
2022/09/30 04:16:40;;;;;;;7.80;6.30;;;10.00;99.90;;;;;;5026770;28;20666;-80
2022/09/30 04:19:05;;;;;;;6.77;5.97;;;9.90;99.90;;;;;;5038717;28;20618;-81
2022/09/30 04:21:31;;;;;;;7.87;7.07;;;10.00;99.90;;;;;;5022229;28;20683;-81
2022/09/30 04:23:56;;;;;;;7.73;7.00;;;10.10;99.90;;;;;;5038884;28;20254;-81
2022/09/30 04:26:22;;;;;;;8.83;6.90;;;10.10;99.90;;;;;;5030151;28;20194;-81
2022/09/30 04:28:48;;;;;;;6.00;5.13;;;9.90;99.90;;;;;;5032150;28;20202;-81
2022/09/30 04:31:16;;;;;;;7.10;6.40;;;9.80;99.90;;;;;;5031928;28;20480;-81
2022/09/30 04:33:43;;;;;;;7.25;5.95;;;10.30;99.90;;;;;;5030120;28;20700;-81
2022/09/30 04:36:09;;;;;;;7.20;5.80;;;10.20;99.90;;;;;;5021737;28;20219;-81
2022/09/30 04:38:34;;;;;;;9.77;6.60;;;10.20;99.90;;;;;;5023784;28;20196;-80
2022/09/30 04:41:04;;;;;;;7.37;6.37;;;9.80;99.90;;;;;;5024944;28;20851;-82
2022/09/30 04:43:30;;;;;;;7.65;6.32;;;9.90;99.90;;;;;;5023708;28;20198;-81
2022/09/30 04:45:56;;;;;;;6.33;5.73;;;10.40;99.90;;;;;;5032694;28;20190;-81
2022/09/30 04:48:23;;;;;;;9.40;6.65;;;9.90;99.90;;;;;;5028779;28;21038;-81
2022/09/30 04:50:49;;;;;;;8.20;7.40;;;9.90;99.90;;;;;;5017088;28;20223;-80
2022/09/30 04:53:15;;;;;;;8.02;7.28;;;9.80;99.90;;;;;;5022372;28;20190;-81
2022/09/30 04:55:42;;;;;;;9.40;7.00;;;9.90;99.90;;;;;;5016982;28;20202;-81
2022/09/30 04:58:07;;;;;;;8.55;7.15;;;10.00;99.90;;;;;;5017620;28;20214;-81
2022/09/30 05:00:33;;;;;;;8.93;7.60;;;10.20;99.90;;;;;;5021856;28;20785;-79
2022/09/30 05:02:58;;;;;;;8.47;7.57;;;9.70;99.90;;;;;;5024666;28;20633;-82
2022/09/30 05:05:24;;;;;;;10.07;7.40;;;10.00;99.90;;;;;;5027636;28;20178;-81
2022/09/30 05:07:50;;;;;;;11.23;8.57;;;9.60;99.90;;;;;;5018688;28;20742;-82
2022/09/30 05:10:15;;;;;;;8.67;7.87;;;9.50;99.90;;;;;;5021398;28;20186;-80
2022/09/30 05:12:41;;;;;;;9.40;8.50;;;9.90;99.90;;;;;;5021214;28;20198;-82
2022/09/30 05:15:08;;;;;;;9.30;8.37;;;9.40;99.90;;;;;;5025012;28;20261;-82
2022/09/30 05:17:34;;;;;;;9.93;7.72;;;9.50;99.90;;;;;;5019249;28;20410;-82
2022/09/30 05:20:00;;;;;;;11.32;7.10;;;10.00;99.90;;;;;;5017892;28;20243;-91
2022/09/30 05:22:27;;;;;;;7.55;6.75;;;9.50;99.90;;;;;;5019735;28;20552;-84
2022/09/30 05:24:54;;;;;;;10.07;6.63;;;9.70;99.90;;;;;;5025464;28;20171;-84
2022/09/30 05:27:21;;;;;;;8.57;7.68;;;9.70;99.90;;;;;;5038807;28;20573;-84
2022/09/30 05:29:46;;;;;;;8.52;7.38;;;9.10;99.90;;;;;;5025097;28;20475;-84
2022/09/30 05:32:12;;;;;;;11.43;8.17;;;9.10;99.90;;;;;;5037146;28;20625;-84
2022/09/30 05:34:38;;;;;;;10.70;6.90;;;9.40;99.90;;;;;;5026438;28;20174;-83
2022/09/30 05:37:05;;;;;;;9.93;7.60;;;9.50;99.90;;;;;;5022916;28;20224;-84
2022/09/30 05:39:30;;;;;;;12.93;8.68;;;9.30;99.90;;;;;;5022601;28;20226;-84
2022/09/30 05:41:57;;;;;;;11.60;9.53;;;9.20;99.90;;;;;;5034413;28;20730;-85
2022/09/30 05:44:23;;;;;;;11.63;9.18;;;9.40;99.90;;;;;;5032680;28;20659;-84
2022/09/30 05:46:49;;;;;;;15.90;9.20;;;9.40;99.90;;;;;;5035757;28;20189;-84
2022/09/30 05:49:14;;;;;;;11.27;8.73;;;9.20;99.90;;;;;;5025178;28;20670;-84
2022/09/30 05:51:40;;;;;;;11.00;9.43;;;9.10;99.90;;;;;;5019135;28;20217;-84
2022/09/30 05:54:05;;;;;;;12.80;8.83;;;9.30;99.90;;;;;;5030530;28;20186;-84
2022/09/30 05:56:33;;;;;;;11.63;9.07;;;9.10;99.90;;;;;;5023408;28;20289;-84
2022/09/30 05:58:59;;;;;;;13.20;8.35;;;9.20;99.90;;;;;;5027515;28;20210;-84
2022/09/30 06:01:24;;;;;;;9.17;8.17;;;9.40;99.90;;;;;;5030277;28;20233;-84
2022/09/30 06:03:50;;;;;;;9.20;8.40;;;9.40;99.90;;;;;;5028783;28;20756;-84
2022/09/30 06:06:17;;;;;;;10.27;7.73;;;9.80;99.90;;;;;;5030593;28;20183;-84
2022/09/30 06:08:43;;;;;;;9.27;8.25;;;9.70;99.90;;;;;;5025317;28;20266;-84
2022/09/30 06:11:11;;;;;;;12.60;11.07;;;9.50;99.90;;;;;;5037591;28;20301;-84
2022/09/30 06:13:38;;;;;;;9.57;8.68;;;9.70;99.90;;;;;;5051558;28;20190;-84
2022/09/30 06:16:04;;;;;;;10.50;8.05;;;9.60;99.90;;;;;;5020877;28;20225;-84
2022/09/30 06:18:30;;;;;;;12.77;11.47;;;9.60;99.90;;;;;;5044596;28;20179;-84
2022/09/30 06:21:00;;;;;;;9.50;8.55;;;9.60;99.90;;;;;;5024652;28;20459;-84
2022/09/30 06:23:26;;;;;;;11.18;9.48;;;9.90;99.90;;;;;;5038594;28;20174;-83
2022/09/30 06:25:53;;;;;;;11.20;10.00;;;9.30;99.90;;;;;;5028520;28;20191;-83
2022/09/30 06:28:20;;;;;;;9.10;8.20;;;9.40;99.90;;;;;;5044900;28;20414;-84
2022/09/30 06:30:46;;;;;;;9.00;8.10;;;9.60;99.90;;;;;;5033486;28;20214;-84
2022/09/30 06:33:13;;;;;;;11.98;8.35;;;9.80;99.90;;;;;;5035797;28;20635;-84
2022/09/30 06:35:41;;;;;;;9.95;8.95;;;9.80;99.90;;;;;;5027298;28;20213;-84
2022/09/30 06:38:07;;;;;;;12.23;9.02;;;9.90;99.90;;;;;;5037547;28;20293;-84
2022/09/30 06:40:32;;;;;;;10.35;8.82;;;10.10;99.90;;;;;;5026312;28;20198;-84
2022/09/30 06:42:59;;;;;;;15.90;9.33;;;10.10;99.90;;;;;;5030093;28;20704;-85
2022/09/30 06:45:25;;;;;;;9.93;8.98;;;9.90;99.90;;;;;;5028220;28;20197;-84
2022/09/30 06:47:59;;;;;;;12.77;10.23;;;10.50;99.90;;;;;;5027675;28;20187;-84
2022/09/30 06:50:25;;;;;;;9.68;8.73;;;10.50;99.90;;;;;;5043178;28;20199;-82
2022/09/30 06:52:51;;;;;;;13.45;10.02;;;10.30;99.90;;;;;;5040748;28;20468;-84
2022/09/30 06:55:17;;;;;;;11.50;9.40;;;10.50;99.90;;;;;;5039584;28;20288;-83
2022/09/30 06:57:45;;;;;;;11.43;9.20;;;10.40;99.90;;;;;;5034850;28;20437;-84
2022/09/30 07:00:11;;;;;;;11.30;9.93;;;10.90;99.90;;;;;;5036602;28;20176;-83
2022/09/30 07:02:38;;;;;;;13.07;10.25;;;10.90;99.90;;;;;;5032419;28;20416;-83
2022/09/30 07:05:04;;;;;;;10.32;9.38;;;11.20;99.90;;;;;;5047494;28;20196;-84
2022/09/30 07:07:33;;;;;;;9.70;8.70;;;11.60;99.90;;;;;;5038712;28;20281;-85
2022/09/30 07:09:59;;;;;;;10.30;9.18;;;11.10;99.90;;;;;;5029603;28;20477;-84
2022/09/30 07:12:24;;;;;;;13.93;9.53;;;11.90;99.90;;;;;;5025184;28;20217;-84
2022/09/30 07:14:50;;;;;;;11.83;8.33;;;11.70;99.90;;;;;;5028718;28;20609;-84
2022/09/30 07:17:15;;;;;;;9.70;8.00;;;12.20;99.90;;;;;;5032142;28;20196;-84
2022/09/30 07:19:41;;;;;;;9.90;8.77;;;11.90;99.90;;;;;;5025381;28;20195;-84
2022/09/30 07:24:51;;;;;;;9.30;7.97;;;12.30;99.90;;;;;;5026075;28;20247;-83
2022/09/30 07:27:17;;;;;;;10.43;9.50;;;12.30;99.90;;;;;;5024748;28;20179;-83
2022/09/30 07:29:44;;;;;;;9.80;8.25;;;12.30;99.90;;;;;;5037587;28;20239;-84
2022/09/30 07:32:10;;;;;;;9.52;8.60;;;12.60;99.90;;;;;;5033655;28;20271;-83
2022/09/30 07:34:36;;;;;;;11.75;9.85;;;13.10;99.90;;;;;;5034271;28;20181;-84
2022/09/30 07:37:02;;;;;;;10.70;9.60;;;13.00;99.90;;;;;;5031936;28;20577;-85
2022/09/30 07:39:30;;;;;;;11.60;9.50;;;12.30;99.90;;;;;;5032996;28;20519;-84
2022/09/30 07:41:55;;;;;;;10.52;9.43;;;12.90;99.90;;;;;;5024128;28;20583;-84
2022/09/30 07:44:21;;;;;;;11.80;9.60;;;12.50;99.90;;;;;;5046694;28;20174;-85
2022/09/30 07:46:46;;;;;;;9.83;8.83;;;12.80;99.90;;;;;;5026428;28;20190;-84
2022/09/30 07:49:19;;;;;;;10.47;9.37;;;12.80;99.90;;;;;;5024441;28;20185;-83
2022/09/30 07:51:45;;;;;;;12.45;10.63;;;13.60;99.90;;;;;;5031458;28;20741;-84
2022/09/30 07:54:14;;;;;;;12.90;9.90;;;13.60;99.90;;;;;;5028628;28;20265;-84
2022/09/30 07:56:42;;;;;;;10.90;9.85;;;13.30;99.90;;;;;;5029982;28;20248;-84
2022/09/30 07:59:10;;;;;;;11.95;10.70;;;13.50;99.90;;;;;;5027889;28;20178;-84
2022/09/30 08:01:35;;;;;;;13.60;10.90;;;13.50;99.90;;;;;;5021664;28;20252;-84
2022/09/30 08:04:04;;;;;;;16.20;13.90;;;13.90;99.90;;;;;;5050295;28;20181;-84
2022/09/30 08:06:31;;;;;;;14.25;11.63;;;14.20;99.90;;;;;;5025389;28;20198;-84
2022/09/30 08:08:57;;;;;;;15.45;13.32;;;14.00;99.90;;;;;;5033516;28;20193;-84
2022/09/30 08:11:24;;;;;;;17.35;11.02;;;14.30;99.90;;;;;;5020207;28;20636;-84
2022/09/30 08:13:51;;;;;;;15.38;11.65;;;13.90;99.90;;;;;;5027095;28;20201;-84
2022/09/30 08:16:18;;;;;;;11.82;10.55;;;14.00;99.90;;;;;;5037436;28;20221;-84
2022/09/30 08:18:43;;;;;;;11.48;10.27;;;14.30;99.90;;;;;;5046450;28;20605;-84
2022/09/30 08:21:09;;;;;;;14.63;12.33;;;14.10;99.90;;;;;;5052297;28;20197;-84
2022/09/30 08:23:34;;;;;;;12.93;11.67;;;14.10;99.90;;;;;;5018289;28;20717;-84
2022/09/30 08:26:11;;;;;;;12.97;11.50;;;14.20;99.90;;;;;;5036425;28;20190;-84
2022/09/30 08:28:37;;;;;;;12.80;11.50;;;13.90;99.90;;;;;;5050474;28;20677;-84
2022/09/30 08:31:09;;;;;;;14.73;11.55;;;13.90;99.90;;;;;;5055188;28;20205;-85
2022/09/30 08:33:35;;;;;;;12.15;10.85;;;13.90;99.90;;;;;;5030778;28;20182;-84
2022/09/30 08:36:06;;;;;;;12.33;10.37;;;14.30;99.90;;;;;;5026542;28;20220;-85
2022/09/30 08:38:32;;;;;;;12.52;11.27;;;14.00;99.90;;;;;;5045936;28;20178;-84
2022/09/30 08:41:13;;;;;;;12.73;11.10;;;14.20;99.90;;;;;;5043172;28;20615;-84
2022/09/30 08:43:50;;;;;;;12.18;10.98;;;14.10;99.90;;;;;;5014607;28;21036;-84
2022/09/30 08:46:27;;;;;;;12.65;11.45;;;14.10;99.90;;;;;;5053910;28;20357;-85
2022/09/30 08:49:02;;;;;;;12.63;11.32;;;14.20;99.90;;;;;;5034761;28;20195;-84
2022/09/30 08:51:32;;;;;;;14.18;11.85;;;14.10;99.90;;;;;;5052646;28;20756;-85
2022/09/30 08:54:02;;;;;;;16.17;12.50;;;14.30;99.90;;;;;;5032968;28;20177;-84
2022/09/30 08:56:32;;;;;;;13.32;11.93;;;14.60;99.90;;;;;;5048322;28;20285;-84
2022/09/30 08:59:27;;;;;;;14.50;12.90;;;14.60;99.90;;;;;;5042437;28;20173;-84
2022/09/30 09:02:01;;;;;;;13.90;12.13;;;14.10;99.90;;;;;;5032640;28;20202;-84
2022/09/30 09:04:26;;;;;;;13.77;12.35;;;14.10;99.90;;;;;;5045851;28;20207;-85
2022/09/30 09:07:24;;;;;;;14.67;12.97;;;14.00;99.90;;;;;;5026051;28;20241;-85
2022/09/30 09:10:03;;;;;;;13.02;11.63;;;14.10;99.90;;;;;;5022990;28;20222;-84
2022/09/30 09:13:02;;;;;;;14.82;12.98;;;14.20;99.90;;;;;;5021678;28;20198;-83
2022/09/30 09:15:44;;;;;;;14.73;13.15;;;14.20;99.90;;;;;;5021773;28;20308;-83
2022/09/30 09:18:35;;;;;;;14.65;12.98;;;14.00;99.90;;;;;;5037480;28;20642;-84
2022/09/30 09:21:15;;;;;;;13.15;11.73;;;14.70;99.90;;;;;;5020255;28;20201;-84
2022/09/30 09:23:41;;;;;;;14.30;12.90;;;15.20;99.90;;;;;;5025014;28;20181;-84
2022/09/30 09:26:11;;;;;;;11.73;10.70;;;15.70;99.90;;;;;;5053511;28;20182;-84
2022/09/30 09:28:41;;;;;;;15.60;11.93;;;17.40;99.90;;;;;;5037428;28;20244;-84
2022/09/30 09:31:13;;;;;;;13.27;11.07;;;18.40;96.60;;;;;;5023879;28;20214;-84
2022/09/30 09:33:39;;;;;;;12.68;11.45;;;18.60;95.40;;;;;;5022384;28;20618;-83
2022/09/30 09:36:46;;;;;;;12.40;11.27;;;19.10;94.60;;;;;;5046161;28;20309;-83
2022/09/30 09:39:23;;;;;;;12.48;11.20;;;19.30;93.60;;;;;;4964673;28;20574;-84
2022/09/30 09:42:10;;;;;;;12.40;10.52;;;20.20;91.70;;;;;;5019526;28;20698;-84
2022/09/30 09:44:57;;;;;;;13.52;12.23;;;21.70;89.10;;;;;;5032052;28;20193;-84
2022/09/30 09:47:22;;;;;;;13.70;12.13;;;20.00;87.30;;;;;;5019347;28;20193;-84
2022/09/30 09:49:55;;;;;;;15.70;13.40;;;20.80;87.90;;;;;;5046779;28;20368;-84
2022/09/30 09:52:43;;;;;;;11.95;10.90;;;22.30;85.90;;;;;;5060639;28;20700;-83
2022/09/30 09:55:10;;;;;;;10.38;9.48;;;20.80;84.50;;;;;;5048783;28;20645;-84
2022/09/30 09:57:38;;;;;;;11.80;10.60;;;20.70;86.70;;;;;;5033933;28;20185;-84
2022/09/30 10:03:05;;;;;;;11.87;10.77;;;22.70;80.80;;;;;;5026172;28;20444;-84
2022/09/30 10:05:38;;;;;;;11.07;10.07;;;21.80;79.50;;;;;;5047645;28;20467;-84
2022/09/30 10:08:16;;;;;;;13.10;11.80;;;21.50;81.70;;;;;;5039892;28;20219;-84
2022/09/30 10:10:52;;;;;;;13.23;11.82;;;21.10;83.00;;;;;;5027835;28;20218;-84
2022/09/30 10:13:23;;;;;;;13.45;12.05;;;20.50;83.80;;;;;;5035995;28;20185;-84
2022/09/30 10:15:54;;;;;;;11.93;10.93;;;19.80;85.70;;;;;;5034769;28;20285;-84
2022/09/30 10:18:47;;;;;;;11.80;10.70;;;18.90;89.50;;;;;;5044893;28;20184;-84
2022/09/30 10:21:25;;;;;;;13.43;11.18;;;19.00;90.20;;;;;;5036901;28;20765;-84
2022/09/30 10:23:50;;;;;;;12.10;11.00;;;18.70;90.50;;;;;;5039049;28;20273;-85
2022/09/30 10:26:25;;;;;;;12.20;10.90;;;18.50;91.70;;;;;;5034862;28;20621;-84
2022/09/30 10:28:53;;;;;;;11.05;9.95;;;18.10;92.30;;;;;;5039812;28;20295;-84
2022/09/30 10:31:27;;;;;;;10.50;9.50;;;17.40;93.00;;;;;;5030884;28;20195;-84
2022/09/30 10:34:03;;;;;;;9.10;7.85;;;18.40;94.10;;;;;;5040320;28;20285;-84
2022/09/30 10:36:32;;;;;;;10.13;8.60;;;17.60;92.60;;;;;;5035166;28;20296;-84
2022/09/30 10:39:18;;;;;;;8.25;6.53;;;16.60;92.50;;;;;;5036209;28;20560;-85
2022/09/30 10:41:44;;;;;;;8.27;7.50;;;17.10;92.40;;;;;;5031753;28;20206;-85
2022/09/30 10:44:20;;;;;;;8.77;6.70;;;17.00;92.70;;;;;;5035260;28;20725;-86
2022/09/30 10:46:48;;;;;;;6.35;5.72;;;16.80;92.50;;;;;;5027399;28;20178;-85
2022/09/30 10:49:27;;;;;;;7.32;6.40;;;17.30;92.10;;;;;;5030155;28;20658;-85
2022/09/30 10:51:55;;;;;;;7.20;6.50;;;16.80;91.90;;;;;;5036864;28;20246;-84
2022/09/30 10:54:55;;;;;;;5.72;5.22;;;17.10;91.60;;;;;;5041054;28;20722;-85
2022/09/30 10:57:28;;;;;;;5.90;5.30;;;16.70;91.30;;;;;;5030155;28;20201;-85
2022/09/30 11:00:08;;;;;;;4.90;4.50;;;16.20;91.10;;;;;;5028256;28;20213;-84
2022/09/30 11:02:36;;;;;;;4.72;4.32;;;16.70;91.10;;;;;;5029803;28;20200;-84
2022/09/30 11:05:16;;;;;;;5.93;4.32;;;17.10;90.90;;;;;;5051475;28;20193;-84
2022/09/30 11:07:54;;;;;;;4.20;3.80;;;16.70;90.70;;;;;;5034310;28;20178;-85
2022/09/30 11:10:37;;;;;;;4.50;3.50;;;17.30;90.20;;;;;;5029844;28;20197;-85
2022/09/30 11:13:03;;;;;;;3.70;3.40;;;16.90;89.40;;;;;;5036170;28;20223;-84
2022/09/30 11:15:36;;;;;;;4.17;3.67;;;17.50;88.80;;;;;;5028551;28;20545;-84
2022/09/30 11:18:22;;;;;;;4.50;2.70;;;17.40;88.50;;;;;;5029133;28;20662;-84
2022/09/30 11:20:54;;;;;;;3.85;3.20;;;16.70;86.20;;;;;;5024032;28;20221;-84
2022/09/30 11:23:35;;;;;;;2.95;2.72;;;17.20;87.30;;;;;;5041036;28;20684;-84
2022/09/30 11:26:16;;;;;;;3.00;2.63;;;16.80;86.20;;;;;;5028600;28;20263;-85
2022/09/30 11:28:51;;;;;;;3.03;2.78;;;16.40;86.00;;;;;;5030795;28;20284;-85
2022/09/30 11:31:29;;;;;;;4.05;3.47;;;16.40;85.50;;;;;;5056855;28;20200;-84
2022/09/30 11:34:13;;;;;;;3.70;3.40;;;16.90;87.70;;;;;;5028958;28;20220;-84
2022/09/30 11:37:00;;;;;;;4.18;3.80;;;16.50;87.30;;;;;;5029608;28;20226;-85
2022/09/30 11:39:55;;;;;;;3.22;3.03;;;16.90;86.90;;;;;;5031300;28;20576;-84
2022/09/30 11:42:43;;;;;;;4.50;4.10;;;16.70;85.70;;;;;;4976692;28;20207;-84
2022/09/30 11:45:32;;;;;;;4.43;3.70;;;16.30;88.90;;;;;;5038110;28;20178;-84
2022/09/30 11:48:19;;;;;;;5.38;4.88;;;17.00;89.20;;;;;;5026780;28;20257;-84
2022/09/30 11:51:12;;;;;;;4.53;4.13;;;17.40;90.00;;;;;;5032448;28;20209;-84
2022/09/30 11:53:53;;;;;;;4.40;4.00;;;17.20;91.10;;;;;;5027149;28;20186;-84
2022/09/30 11:57:09;;;;;;;5.15;4.65;;;17.10;90.30;;;;;;5023395;28;20556;-85
2022/09/30 11:59:48;;;;;;;5.75;5.25;;;17.20;90.30;;;;;;5004129;28;20235;-84
2022/09/30 12:02:33;;;;;;;4.10;3.72;;;17.50;90.00;;;;;;5033020;28;20203;-85
2022/09/30 12:05:10;;;;;;;4.15;3.50;;;17.30;88.20;;;;;;5020713;28;20741;-85
2022/09/30 12:07:50;;;;;;;4.07;3.67;;;17.70;87.80;;;;;;5032085;28;20190;-84
2022/09/30 12:10:25;;;;;;;4.00;3.70;;;17.80;86.20;;;;;;5021005;28;20185;-84
2022/09/30 12:13:01;;;;;;;4.15;3.75;;;17.80;86.90;;;;;;5024080;28;20281;-84
2022/09/30 12:15:29;;;;;;;3.90;3.60;;;17.80;85.90;;;;;;5026524;28;20744;-85
2022/09/30 12:17:58;;;;;;;3.97;3.25;;;18.20;86.30;;;;;;5033357;28;20252;-84
2022/09/30 12:20:26;;;;;;;3.67;3.35;;;18.30;84.40;;;;;;5047987;28;20912;-84
2022/09/30 12:22:59;;;;;;;3.83;3.28;;;17.70;83.40;;;;;;5017073;28;20249;-84
2022/09/30 12:25:30;;;;;;;3.58;2.75;;;17.80;82.50;;;;;;5027694;28;20230;-84
2022/09/30 12:31:46;;;;;;;5.78;2.83;;;17.90;83.50;;;;;;5024988;28;20269;-84
2022/09/30 12:34:30;;;;;;;3.97;2.78;;;17.90;82.50;;;;;;5031100;28;20175;-85
2022/09/30 12:37:10;;;;;;;2.85;2.65;;;17.90;82.20;;;;;;5045696;28;20291;-85
2022/09/30 12:40:03;;;;;;;3.15;2.55;;;18.40;82.80;;;;;;5024082;28;20650;-85
2022/09/30 12:42:48;;;;;;;2.80;2.60;;;18.00;81.30;;;;;;5014885;28;20658;-85
2022/09/30 12:45:34;;;;;;;3.22;3.00;;;17.90;79.50;;;;;;5041203;28;20224;-85
2022/09/30 12:48:10;;;;;;;2.72;2.50;;;18.00;81.00;;;;;;5022941;28;20252;-84
2022/09/30 12:50:44;;;;;;;3.95;2.90;;;17.90;81.60;;;;;;5025565;28;20210;-85
2022/09/30 12:53:50;;;;;;;2.65;2.42;;;18.00;81.80;;;;;;5017837;28;20240;-84
2022/09/30 12:56:17;;;;;;;2.10;2.00;;;18.30;82.70;;;;;;4995968;28;20241;-84
2022/09/30 12:58:47;;;;;;;3.72;2.72;;;17.70;81.10;;;;;;4989258;28;20193;-84
2022/09/30 13:01:29;;;;;;;17.40;13.88;;;17.50;82.50;;;;;;5017835;28;20206;-85
2022/09/30 13:04:00;;;;;;;2.67;2.20;;;17.50;84.20;;;;;;5021829;28;20659;-84
2022/09/30 13:06:44;;;;;;;2.58;2.38;;;17.80;82.10;;;;;;5031624;28;20197;-84
2022/09/30 13:09:15;;;;;;;2.20;2.00;;;17.90;80.30;;;;;;5042156;28;20213;-84
2022/09/30 13:11:45;;;;;;;3.45;3.15;;;17.50;79.20;;;;;;5024068;28;20222;-83
2022/09/30 13:14:43;;;;;;;1.60;1.50;;;17.40;79.90;;;;;;5032444;28;20182;-84
2022/09/30 13:17:09;;;;;;;2.45;2.08;;;18.10;74.50;;;;;;5027401;28;20256;-84
2022/09/30 13:19:35;;;;;;;3.80;2.10;;;17.70;76.30;;;;;;5029939;28;20183;-84
2022/09/30 13:22:28;;;;;;;2.53;2.00;;;17.40;75.70;;;;;;5036877;28;20245;-83